Latest Weather Observations for Adelaide

IDS60901

Issued at 11:45 pm CDT Friday 28 November 2014 (issued every 10 minutes, with the page automatically refreshed every 10 minutes)

About weather observations | Map of Adelaide area stations | Latest observations for Adelaide area | Other Formats
Station Details ID: 023090 Name: KENT TOWN Lat: -34.92 Lon: 138.62 Height: 48.0 m
Data from the previous 72 hours. | See also: Recent months at Adelaide
Date/Time
CDT
Tmp

°C
App
Tmp
°C
Dew
Point
°C
Rel
Hum
%
Delta-T

°C
Wind Press
QNH
hPa
Press
MSL
hPa
Rain
since
9 am
mm
Dir
 
Spd
km/h
Gust
km/h
Spd
kts
Gust
kts
28/11:30pm 21.4 19.8 4.7 33 8.2 SE 2 6 1 3 1014.9 - 0.0
28/11:00pm 22.9 19.3 3.2 27 9.5 SSE 11 17 6 9 1015.1 - 0.0
28/10:30pm 22.9 19.3 4.8 30 9.0 SSE 13 22 7 12 1015.2 - 0.0
28/10:00pm 23.1 19.7 3.8 28 9.4 SSE 11 15 6 8 1015.3 - 0.0
28/09:30pm 23.7 21.4 5.8 31 9.1 SSE 7 13 4 7 1015.1 - 0.0
28/09:00pm 24.2 20.9 4.8 28 9.7 SE 11 17 6 9 1015.0 1015.0 0.0
28/08:30pm 24.1 21.8 5.6 30 9.4 SSW 7 11 4 6 1015.2 - 0.0
28/08:00pm 25.0 21.7 2.4 23 10.9 SSW 9 13 5 7 1015.1 - 0.0
28/07:30pm 25.6 21.2 0.2 19 11.8 SSW 13 20 7 11 1015.1 - 0.0
28/07:00pm 25.9 21.1 2.4 21 11.4 SW 17 24 9 13 1015.0 - 0.0
28/06:30pm 27.0 22.9 2.5 20 12.0 WSW 13 20 7 11 1014.9 - 0.0
28/06:00pm 27.5 21.6 -2.2 14 13.4 WSW 19 26 10 14 1014.9 1014.9 0.0
28/05:30pm 30.0 24.4 -3.1 11 15.0 WSW 17 24 9 13 1014.9 - 0.0
28/05:00pm 29.5 23.6 -1.1 13 14.3 WSW 20 26 11 14 1015.2 - 0.0
28/04:30pm 30.2 25.1 -1.6 12 14.8 WSW 15 22 8 12 1015.5 - 0.0
28/04:00pm 29.7 25.9 3.8 19 13.2 SW 13 20 7 11 1015.7 - 0.0
28/03:30pm 27.3 22.7 5.7 25 11.2 SW 19 24 10 13 1016.1 - 0.0
28/03:00pm 29.0 24.5 6.0 23 12.1 WSW 19 30 10 16 1016.4 1016.4 0.0
28/02:30pm 30.2 26.5 6.1 22 12.8 WSW 15 22 8 12 1016.5 - 0.0
28/02:00pm 29.0 25.2 7.5 26 11.6 WSW 17 24 9 13 1016.7 - 0.0
28/01:30pm 30.6 26.3 7.1 23 12.7 W 19 26 10 14 1016.9 - 0.0
28/01:00pm 30.2 26.8 7.6 24 12.3 W 15 20 8 11 1017.3 - 0.0
28/12:30pm 29.8 26.6 5.0 20 12.9 NW 11 20 6 11 1017.7 - 0.0
28/12:00pm 29.0 26.5 3.7 20 12.8 NNE 6 13 3 7 1018.1 1018.1 0.0
28/11:30am 28.7 25.4 2.7 19 12.9 NNW 9 17 5 9 1018.5 - 0.0
28/11:00am 26.9 24.5 4.3 23 11.4 N 6 9 3 5 1018.8 - 0.0
28/10:30am 26.4 24.5 7.6 30 10.0 WSW 7 11 4 6 1019.2 - 0.0
28/10:00am 25.7 23.8 6.8 30 9.9 SW 6 13 3 7 1019.6 - 0.0
28/09:30am 23.9 21.9 6.9 33 8.8 S 7 9 4 5 1019.6 - 0.0
28/09:00am 22.9 20.8 6.5 34 8.4 WNW 7 11 4 6 1020.0 1020.0 0.0
28/08:30am 21.2 19.3 7.4 41 7.1 W 7 9 4 5 1020.0 - 0.0
28/08:00am 19.1 18.2 7.8 48 5.8 N 2 9 1 5 1019.7 - 0.0
28/07:30am 16.8 16.4 8.4 57 4.3 CALM 0 0 0 0 1019.7 - 0.0
28/07:00am 14.0 13.3 7.0 62 3.4 CALM 0 0 0 0 1019.5 - 0.0
28/06:30am 12.3 11.5 6.6 68 2.7 CALM 0 0 0 0 1019.5 - 0.0
28/06:00am 12.0 11.3 6.8 70 2.5 CALM 0 0 0 0 1019.4 1019.4 0.0
28/05:30am 12.4 11.2 6.3 66 2.9 NW 2 7 1 4 1019.3 - 0.0
28/05:00am 12.5 11.6 6.1 65 3.0 CALM 0 0 0 0 1019.2 - 0.0
28/04:30am 12.7 11.8 6.1 64 3.1 CALM 0 0 0 0 1018.9 - 0.0
28/04:00am 12.7 11.9 6.4 65 3.0 CALM 0 0 0 0 1018.7 - 0.0
28/03:30am 13.0 12.2 6.5 64 3.1 CALM 0 0 0 0 1018.6 - 0.0
28/03:00am 13.3 12.4 5.9 61 3.5 CALM 0 6 0 3 1018.8 1018.8 0.0
28/02:30am 13.1 12.3 6.4 64 3.2 CALM 0 0 0 0 1018.9 - 0.0
28/02:00am 13.7 12.7 5.6 58 3.8 CALM 0 0 0 0 1019.2 - 0.0
28/01:30am 13.9 13.0 5.9 58 3.8 CALM 0 0 0 0 1019.3 - 0.0
28/01:00am 14.2 13.2 5.5 56 4.1 CALM 0 0 0 0 1019.7 - 0.0
28/12:30am 14.5 13.5 5.6 55 4.2 CALM 0 0 0 0 1019.9 - 0.0
28/12:00am 15.0 13.8 4.7 50 4.8 CALM 0 0 0 0 1020.2 1020.2 0.0
 
Date/Time
CDT
Tmp

°C
App
Tmp
°C
Dew
Point
°C
Rel
Hum
%
Delta-T

°C
Wind Press
QNH
hPa
Press
MSL
hPa
Rain
since
9 am
mm
Dir
 
Spd
km/h
Gust
km/h
Spd
kts
Gust
kts
27/11:30pm 15.5 14.2 4.3 47 5.2 CALM 0 0 0 0 1020.6 - 0.0
27/11:00pm 15.9 13.6 4.9 48 5.2 S 6 7 3 4 1020.7 - 0.0
27/10:30pm 16.6 15.3 3.9 42 5.9 CALM 0 0 0 0 1021.0 - 0.0
27/10:00pm 17.6 15.7 3.0 37 6.7 E 2 6 1 3 1021.4 - 0.0
27/09:30pm 18.3 16.9 3.8 38 6.8 CALM 0 0 0 0 1021.3 - 0.0
27/09:00pm 18.9 16.6 4.8 39 6.8 S 6 9 3 5 1021.2 1021.2 0.0
27/08:30pm 20.0 17.7 5.6 39 7.1 SSE 7 13 4 7 1021.1 - 0.0
27/08:00pm 21.3 18.4 4.7 33 8.1 SE 9 15 5 8 1021.1 - 0.0
27/07:30pm 22.7 19.7 5.8 33 8.5 ESE 11 15 6 8 1020.9 - 0.0
27/07:00pm 24.2 20.8 6.0 31 9.3 SSE 13 20 7 11 1020.5 - 0.0
27/06:30pm 25.3 20.9 4.9 27 10.3 S 17 26 9 14 1020.2 - 0.0
27/06:00pm 25.8 22.2 4.8 26 10.6 SSE 13 20 7 11 1020.0 1020.0 0.0
27/05:30pm 26.5 21.7 4.5 24 11.1 S 19 26 10 14 1020.1 - 0.0
27/05:00pm 26.8 22.1 5.0 24 11.1 SSE 19 32 10 17 1020.3 - 0.0
27/04:30pm 27.4 22.5 5.2 24 11.4 SSE 20 30 11 16 1020.1 - 0.0
27/04:00pm 27.4 23.1 5.2 24 11.4 SE 17 30 9 16 1020.2 - 0.0
27/03:30pm 28.4 24.1 5.2 23 12.0 S 17 24 9 13 1020.3 - 0.0
27/03:00pm 27.4 23.6 5.8 25 11.2 SSE 15 26 8 14 1020.6 1020.6 0.0
27/02:30pm 27.4 24.7 5.8 25 11.2 SSE 9 19 5 10 1020.9 - 0.0
27/02:00pm 26.8 24.7 9.6 34 9.5 NW 11 20 6 11 1021.2 - 0.0
27/01:30pm 26.4 24.2 7.9 31 9.9 SSE 9 20 5 11 1021.7 - 0.0
27/01:00pm 25.4 23.6 7.9 32 9.3 SSW 7 17 4 9 1022.1 - 0.0
27/12:30pm 24.6 23.0 8.8 36 8.5 SSE 7 13 4 7 1022.3 - 0.0
27/12:00pm 24.1 21.9 9.3 39 8.0 E 11 17 6 9 1022.8 1022.8 0.0
27/11:30am 23.2 21.2 8.8 39 7.7 ESE 9 13 5 7 1023.1 - 0.0
27/11:00am 23.4 21.7 9.8 42 7.4 S 9 13 5 7 1023.3 - 0.0
27/10:30am 22.4 20.5 9.1 42 7.1 SSE 9 17 5 9 1023.6 - 0.0
27/10:00am 21.4 20.2 9.6 47 6.3 S 6 11 3 6 1023.8 - 0.0
27/09:30am 20.3 19.5 9.6 50 5.7 ESE 4 13 2 7 1024.0 - 0.0
27/09:00am 19.3 17.4 9.2 52 5.3 S 9 13 5 7 1024.1 1024.1 0.0
27/08:30am 18.7 17.6 9.8 56 4.7 NW 6 11 3 6 1024.1 - 0.0
27/08:00am 17.7 17.2 9.5 58 4.3 WNW 2 9 1 5 1023.9 - 0.0
27/07:30am 16.5 15.1 9.4 63 3.7 WNW 7 9 4 5 1023.8 - 0.0
27/07:00am 15.0 13.7 9.3 68 2.9 WNW 6 9 3 5 1023.3 - 0.0
27/06:30am 14.3 12.8 8.5 68 2.9 E 6 9 3 5 1023.0 - 0.0
27/06:00am 13.8 13.2 10.3 79 1.8 NW 4 9 2 5 1022.9 1022.9 0.0
27/05:30am 13.7 13.5 10.6 81 1.6 NNE 2 7 1 4 1022.7 - 0.0
27/05:00am 14.0 13.5 10.8 81 1.7 SE 4 9 2 5 1022.6 - 0.0
27/04:30am 14.2 13.7 10.8 80 1.8 SE 4 9 2 5 1022.4 - 0.0
27/04:00am 14.6 13.5 10.6 77 2.1 ESE 7 13 4 7 1022.3 - 0.0
27/03:30am 14.8 13.7 10.8 77 2.1 E 7 9 4 5 1022.0 - 0.0
27/03:00am 15.3 13.5 11.0 75 2.3 SE 11 17 6 9 1022.2 1022.2 0.0
27/02:30am 15.1 14.2 11.2 77 2.1 SSE 7 11 4 6 1022.5 - 0.0
27/02:00am 15.5 13.7 11.0 74 2.4 SSE 11 19 6 10 1022.8 - 0.0
27/01:30am 14.9 14.1 10.9 77 2.1 SE 6 9 3 5 1023.0 - 0.0
27/01:00am 15.3 15.6 10.8 74 2.4 CALM 0 6 0 3 1023.3 - 0.0
27/12:30am 15.8 14.7 10.7 71 2.7 SSE 7 15 4 8 1023.3 - 0.0
27/12:00am 15.9 14.4 10.6 71 2.8 SSE 9 17 5 9 1023.4 1023.4 0.0
 
Date/Time
CDT
Tmp

°C
App
Tmp
°C
Dew
Point
°C
Rel
Hum
%
Delta-T

°C
Wind Press
QNH
hPa
Press
MSL
hPa
Rain
since
9 am
mm
Dir
 
Spd
km/h
Gust
km/h
Spd
kts
Gust
kts
26/11:30pm 16.0 14.8 10.3 69 3.0 SSE 7 19 4 10 1023.5 - 0.0
26/11:00pm 16.1 15.1 10.2 68 3.1 SSE 6 11 3 6 1023.4 - 0.0
26/10:30pm 16.1 14.2 10.4 69 3.0 S 11 17 6 9 1023.4 - 0.0
26/10:00pm 16.2 13.0 10.1 67 3.2 S 17 30 9 16 1023.2 - 0.0
26/09:30pm 16.3 14.3 10.0 66 3.3 SSE 11 22 6 12 1023.1 - 0.0
26/09:00pm 16.6 13.7 9.5 63 3.7 S 15 22 8 12 1022.8 1022.8 0.0
26/08:30pm 16.9 13.9 9.2 60 4.0 SSE 15 30 8 16 1022.6 - 0.0
26/08:00pm 17.8 14.5 9.4 58 4.4 S 17 22 9 12 1022.4 - 0.0
26/07:30pm 18.9 15.4 8.7 51 5.3 SSE 17 28 9 15 1022.1 - 0.0
26/07:00pm 20.0 16.1 8.5 47 6.0 SSE 19 30 10 16 1021.9 - 0.0
26/06:30pm 21.1 17.3 9.0 46 6.4 S 19 28 10 15 1021.6 - 0.0
26/06:00pm 21.5 17.3 8.3 42 6.9 SSE 20 32 11 17 1021.3 1021.3 0.0
26/05:30pm 22.6 18.6 8.1 39 7.6 SE 19 33 10 18 1021.1 - 0.0
26/05:00pm 22.7 18.5 8.3 39 7.6 SE 20 32 11 17 1021.1 - 0.0
26/04:30pm 23.8 19.1 7.9 36 8.4 SSE 22 30 12 16 1020.9 - 0.0
26/04:00pm 24.0 19.8 7.6 35 8.6 SE 19 32 10 17 1020.7 - 0.0
26/03:30pm 24.8 22.4 9.9 39 8.2 W 13 22 7 12 1020.7 - 0.0
26/03:00pm 23.6 19.9 10.3 43 7.3 WSW 20 28 11 15 1021.3 1021.3 0.0
26/02:30pm 23.0 19.4 10.4 45 6.9 W 20 35 11 19 1021.9 - 0.0
26/02:00pm 21.8 18.1 9.5 45 6.6 WSW 19 30 10 16 1022.4 - 0.0
26/01:30pm 21.7 17.8 9.3 45 6.6 SW 20 28 11 15 1022.7 - 0.0
26/01:00pm 21.6 17.1 8.5 43 6.9 SSW 22 28 12 15 1023.0 - 0.0
26/12:30pm 22.2 18.7 8.8 42 7.1 WSW 17 24 9 13 1023.3 - 0.0
26/12:00pm 21.9 18.9 9.1 44 6.8 W 15 22 8 12 1023.8 1023.8 0.0
26/11:30am 21.3 17.8 8.8 44 6.6 W 17 26 9 14 1024.0 - 0.0
26/11:00am 20.5 18.6 7.7 43 6.6 SSW 7 13 4 7 1024.2 - 0.0
26/10:30am 20.0 17.8 7.7 45 6.3 SSE 9 17 5 9 1024.3 - 0.0
26/10:00am 18.4 15.9 6.7 46 5.8 SSW 9 17 5 9 1024.2 - 0.0
26/09:30am 18.4 16.4 7.3 48 5.6 ESE 7 15 4 8 1024.3 - 0.0
26/09:00am 17.5 15.8 7.6 52 5.0 SSE 6 15 3 8 1024.1 1024.1 0.0
26/08:30am 16.2 13.9 7.6 56 4.3 SSE 9 13 5 7 1023.9 - 0.0
26/08:00am 15.6 14.4 8.0 60 3.8 SW 4 11 2 6 1023.6 - 0.0
26/07:30am 14.1 13.8 8.5 69 2.8 CALM 0 0 0 0 1023.3 - 0.0
26/07:00am 12.3 11.9 8.2 76 2.0 CALM 0 0 0 0 1023.0 - 0.0
26/06:30am 10.8 10.3 7.9 82 1.4 CALM 0 0 0 0 1022.8 - 0.0
26/06:00am 10.5 10.0 7.8 83 1.3 CALM 0 0 0 0 1022.4 1022.4 0.0
26/05:30am 10.7 9.5 8.0 83 1.3 SE 4 6 2 3 1022.2 - 0.0
26/05:00am 10.9 10.4 7.8 81 1.5 CALM 0 0 0 0 1022.0 - 0.0
26/04:30am 11.2 10.7 7.7 79 1.7 CALM 0 0 0 0 1021.8 - 0.0
26/04:00am 11.6 11.1 7.9 78 1.8 CALM 0 0 0 0 1021.9 - 0.0
26/03:30am 11.5 11.0 7.8 78 1.8 CALM 0 0 0 0 1021.9 - 0.0
26/03:00am 11.9 11.4 7.8 76 2.0 CALM 0 0 0 0 1022.0 1022.0 0.0
26/02:30am 12.4 11.5 7.9 74 2.2 NE 2 7 1 4 1022.0 - 0.0
26/02:00am 12.8 11.4 7.4 69 2.6 SSE 4 9 2 5 1022.1 - 0.0
26/01:30am 13.1 12.6 7.8 70 2.6 CALM 0 0 0 0 1022.2 - 0.0
26/01:00am 13.8 11.9 7.5 66 3.1 SSE 7 11 4 6 1022.5 - 0.0
26/12:30am 13.9 11.3 7.8 66 3.0 SSE 11 20 6 11 1022.7 - 0.0
26/12:00am 14.1 11.2 8.1 67 3.0 S 13 20 7 11 1023.0 1023.0 0.0

Latest Capital City Observations: Canberra | Sydney | Melbourne | Brisbane | Adelaide | Perth | Hobart | Darwin

Other Formats:

Comma delimited format used in spreadsheet applications
http://www.bom.gov.au/fwo/IDS60901/IDS60901.94675.axf

JavaScript Object Notation format (JSON) in row-major order
http://www.bom.gov.au/fwo/IDS60901/IDS60901.94675.json